Station Historical Data
Daily Summary for January 16, 2012 Units:  English    Metric   Both
« Previous Day
Next Day »
Daily Weekly Monthly Yearly Custom
  High: Low: Average:
Temperature: 57.9 °F 42.0 °F 56.8 °F
Dew Point: 51.4 °F 27.5 °F 47.9 °F
Humidity: 80% 56% 72%
Wind Speed: 20.0mph 4.0mph 10.6mph
Wind Gust: 23.0mph - -
Wind- - SSE
Pressure: 30.37 in 30.11 in -
Precipitation: 0.07 in    
Historical Graphs
 
 
Tabular Data for January 16, 2012
Time Temperature Dew Point Pressure Wind Wind Speed Wind Gust Humidity Rainfall Rate (Hourly) Conditions
16:29 42.0 °F 27.5 °F 30.37 in ESE 5.0 mph 7.0 mph 56% 0.00 in
16:30 56.5 °F 50.1 °F 30.14 in SSE 10.0 mph 10.0 mph 79% 0.00 in
16:31 56.5 °F 50.1 °F 30.14 in SSW 4.0 mph 11.0 mph 79% 0.00 in
16:37 56.6 °F 50.2 °F 30.14 in SE 20.0 mph 20.0 mph 79% 0.00 in
16:42 56.8 °F 50.0 °F 30.14 in South 12.0 mph 17.0 mph 78% 0.00 in
16:47 56.9 °F 50.1 °F 30.14 in SE 17.0 mph 18.0 mph 78% 0.00 in
16:52 57.0 °F 50.2 °F 30.14 in SSE 13.0 mph 15.0 mph 78% 0.00 in
16:57 56.8 °F 50.0 °F 30.14 in SE 16.0 mph 16.0 mph 78% 0.00 in
17:02 56.9 °F 50.1 °F 30.14 in South 8.0 mph 18.0 mph 78% 0.00 in
17:07 56.7 °F 49.9 °F 30.14 in SE 11.0 mph 15.0 mph 78% 0.00 in
17:12 56.9 °F 49.8 °F 30.14 in SSE 10.0 mph 16.0 mph 77% 0.00 in
17:17 56.9 °F 49.8 °F 30.15 in SSE 11.0 mph 18.0 mph 77% 0.00 in
17:22 56.8 °F 50.0 °F 30.14 in SE 13.0 mph 13.0 mph 78% 0.00 in
17:27 56.9 °F 49.8 °F 30.14 in South 7.0 mph 17.0 mph 77% 0.00 in
17:32 56.9 °F 49.8 °F 30.14 in South 4.0 mph 14.0 mph 77% 0.00 in
17:37 56.8 °F 49.7 °F 30.14 in SE 8.0 mph 12.0 mph 77% 0.00 in
17:42 56.8 °F 49.7 °F 30.14 in SSE 10.0 mph 13.0 mph 77% 0.00 in
17:47 56.8 °F 49.7 °F 30.14 in South 11.0 mph 17.0 mph 77% 0.00 in
17:52 56.9 °F 49.8 °F 30.15 in SSE 11.0 mph 15.0 mph 77% 0.00 in
17:57 57.0 °F 49.9 °F 30.15 in SSE 10.0 mph 12.0 mph 77% 0.00 in
18:02 57.1 °F 50.0 °F 30.15 in SSW 11.0 mph 13.0 mph 77% 0.00 in
18:07 57.0 °F 50.2 °F 30.14 in SSE 11.0 mph 14.0 mph 78% 0.00 in
18:13 57.1 °F 50.3 °F 30.15 in SE 9.0 mph 13.0 mph 78% 0.00 in
18:18 57.1 °F 50.3 °F 30.15 in SSE 7.0 mph 13.0 mph 78% 0.00 in
18:23 57.0 °F 50.6 °F 30.14 in SSE 6.0 mph 12.0 mph 79% 0.00 in
18:28 57.0 °F 50.6 °F 30.14 in SE 9.0 mph 12.0 mph 79% 0.00 in
18:33 57.1 °F 50.7 °F 30.15 in SSE 5.0 mph 14.0 mph 79% 0.00 in
18:38 57.2 °F 50.8 °F 30.15 in SSE 7.0 mph 11.0 mph 79% 0.00 in
18:43 57.4 °F 51.0 °F 30.15 in South 7.0 mph 14.0 mph 79% 0.00 in
18:48 57.4 °F 51.0 °F 30.15 in SSE 4.0 mph 11.0 mph 79% 0.00 in
18:53 57.5 °F 51.0 °F 30.15 in South 11.0 mph 14.0 mph 79% 0.00 in
18:58 57.5 °F 51.4 °F 30.14 in South 7.0 mph 17.0 mph 80% 0.00 in
19:04 57.7 °F 51.2 °F 30.14 in South 7.0 mph 14.0 mph 79% 0.00 in
19:09 57.7 °F 51.2 °F 30.14 in South 8.0 mph 13.0 mph 79% 0.00 in
19:14 57.8 °F 51.3 °F 30.14 in SSE 6.0 mph 15.0 mph 79% 0.00 in
19:19 57.9 °F 51.1 °F 30.14 in South 11.0 mph 17.0 mph 78% 0.00 in
19:24 57.9 °F 51.1 °F 30.14 in SSW 9.0 mph 16.0 mph 78% 0.00 in
19:29 57.9 °F 51.1 °F 30.14 in SE 8.0 mph 18.0 mph 78% 0.00 in
19:34 57.8 °F 51.0 °F 30.14 in SSE 7.0 mph 14.0 mph 78% 0.00 in
19:39 57.9 °F 51.1 °F 30.14 in SSE 9.0 mph 15.0 mph 78% 0.00 in
19:44 57.8 °F 51.0 °F 30.14 in SSE 14.0 mph 14.0 mph 78% 0.00 in
19:49 57.8 °F 50.7 °F 30.13 in South 9.0 mph 15.0 mph 77% 0.00 in
19:56 57.6 °F 50.5 °F 30.13 in SSE 13.0 mph 17.0 mph 77% 0.00 in
20:01 57.5 °F 50.4 °F 30.13 in South 11.0 mph 15.0 mph 77% 0.00 in
20:06 57.5 °F 50.4 °F 30.13 in SE 16.0 mph 20.0 mph 77% 0.00 in
20:11 57.6 °F 50.5 °F 30.12 in SSE 17.0 mph 22.0 mph 77% 0.00 in
20:16 57.7 °F 50.2 °F 30.12 in SW 10.0 mph 17.0 mph 76% 0.00 in
20:21 57.6 °F 50.1 °F 30.12 in SSE 14.0 mph 17.0 mph 76% 0.00 in
20:26 57.6 °F 50.1 °F 30.12 in SSE 18.0 mph 19.0 mph 76% 0.00 in
20:31 57.6 °F 50.1 °F 30.12 in South 8.0 mph 19.0 mph 76% 0.00 in
20:36 57.5 °F 50.0 °F 30.12 in SSE 11.0 mph 19.0 mph 76% 0.00 in
20:41 57.4 °F 49.5 °F 30.12 in SSW 11.0 mph 19.0 mph 75% 0.00 in
20:46 57.5 °F 49.7 °F 30.11 in SSE 18.0 mph 23.0 mph 75% 0.00 in
20:51 57.5 °F 49.3 °F 30.12 in SSE 11.0 mph 18.0 mph 74% 0.00 in
20:56 57.5 °F 49.3 °F 30.12 in SSE 15.0 mph 18.0 mph 74% 0.00 in
21:01 57.5 °F 48.9 °F 30.12 in SSE 10.0 mph 16.0 mph 73% 0.00 in
21:06 57.4 °F 48.8 °F 30.12 in SSE 9.0 mph 15.0 mph 73% 0.00 in
21:11 57.3 °F 48.4 °F 30.12 in SSE 10.0 mph 23.0 mph 72% 0.00 in
21:16 57.2 °F 47.9 °F 30.12 in SE 8.0 mph 17.0 mph 71% 0.00 in
21:22 57.1 °F 47.4 °F 30.12 in SSE 12.0 mph 18.0 mph 70% 0.00 in
21:27 56.9 °F 46.8 °F 30.12 in SE 9.0 mph 19.0 mph 69% 0.00 in
21:32 56.9 °F 46.8 °F 30.13 in SSE 13.0 mph 16.0 mph 69% 0.00 in
21:37 56.8 °F 46.4 °F 30.13 in SE 13.0 mph 19.0 mph 68% 0.00 in
21:42 56.7 °F 46.3 °F 30.13 in SSE 14.0 mph 17.0 mph 68% 0.00 in
21:47 56.8 °F 46.0 °F 30.12 in SE 17.0 mph 20.0 mph 67% 0.00 in
21:52 56.6 °F 45.4 °F 30.12 in SSE 18.0 mph 18.0 mph 66% 0.00 in
21:58 56.5 °F 45.3 °F 30.12 in SSE 11.0 mph 18.0 mph 66% 0.00 in
22:03 56.4 °F 44.8 °F 30.12 in SE 5.0 mph 20.0 mph 65% 0.00 in
22:08 56.3 °F 44.3 °F 30.12 in SSE 14.0 mph 18.0 mph 64% 0.00 in
22:13 56.2 °F 44.2 °F 30.12 in SE 12.0 mph 21.0 mph 64% 0.00 in
22:18 56.1 °F 44.1 °F 30.11 in SSE 16.0 mph 18.0 mph 64% 0.00 in
22:23 56.0 °F 44.0 °F 30.12 in SSE 9.0 mph 15.0 mph 64% 0.00 in
22:28 56.0 °F 43.6 °F 30.11 in SE 14.0 mph 15.0 mph 63% 0.00 in
22:33 56.1 °F 43.7 °F 30.11 in SSE 12.0 mph 15.0 mph 63% 0.00 in
22:38 56.3 °F 43.5 °F 30.11 in SE 11.0 mph 18.0 mph 62% 0.00 in
22:43 56.4 °F 43.6 °F 30.12 in SE 16.0 mph 18.0 mph 62% 0.00 in
22:48 56.4 °F 43.6 °F 30.11 in SSE 10.0 mph 15.0 mph 62% 0.00 in
22:53 56.4 °F 43.1 °F 30.11 in SE 14.0 mph 18.0 mph 61% 0.00 in
22:58 56.4 °F 43.1 °F 30.12 in SE 11.0 mph 14.0 mph 61% 0.00 in
23:03 56.3 °F 43.5 °F 30.12 in South 7.0 mph 14.0 mph 62% 0.00 in
23:08 56.3 °F 43.0 °F 30.11 in SSE 8.0 mph 15.0 mph 61% 0.00 in
23:13 56.3 °F 43.0 °F 30.12 in SSE 8.0 mph 18.0 mph 61% 0.00 in
23:18 56.4 °F 43.1 °F 30.12 in SE 10.0 mph 17.0 mph 61% 0.00 in
23:23 56.3 °F 43.5 °F 30.12 in SE 9.0 mph 14.0 mph 62% 0.00 in
23:28 56.2 °F 43.4 °F 30.12 in South 9.0 mph 12.0 mph 62% 0.00 in
23:33 56.2 °F 43.8 °F 30.12 in SSE 12.0 mph 12.0 mph 63% 0.00 in
23:39 56.2 °F 43.8 °F 30.12 in South 7.0 mph 12.0 mph 63% 0.00 in
23:44 56.2 °F 44.2 °F 30.11 in SE 7.0 mph 13.0 mph 64% 0.00 in
23:49 56.2 °F 44.2 °F 30.11 in SSW 11.0 mph 12.0 mph 64% 0.00 in
23:54 56.2 °F 44.2 °F 30.11 in SSE 8.0 mph 12.0 mph 64% 0.00 in
23:59 56.3 °F 44.7 °F 30.11 in SSE 11.0 mph 15.0 mph 65% 0.00 in
Compliments of Weather Underground